Colorado do Oeste, Brazil
Current Conditions -  °F | °C
As of 4:00 PM on Friday 19 Dec 2014 (Local Time) from SLSI Reporting Station
Broken Clouds Broken Clouds  
Wind Chill: 82°   Ceiling: 1700
Heat Index: 89°   Visibility: 6mi
Dew Point: 75°   Wind: 9mph
Humidity: 79%   Direction: 330°NNW
Pressure: 29.68"   Gusts: NA
Location:  13.12°S, 60.54°W
Report Text: SLSI 192000Z 33008KT 9999 BKN017 28/24 Q1005
Loading
Personal Weather Stations






























Interactive Weather Map New forecast layout! Learn more

10-Day Weather Forecast

Advertisements
Track Severe Weather on mobile